LIH Airport (Lihue) Information

FAA: LIH - ICAO: PHLI

LIH Airport Location

State Hawaii
County Kauai
City Lihue
LIH Airport is 2 miles east of Lihue, HI.
Latitude 21-58-33.5383N
Longitude 159-20-20.2478W
Elevation 152ft

PHLI Airport METARs

METAR PHLI 200353Z 03010KT 10SM SCT038 24/18 A3006 RMK AO2 SLP177 T02390183
Altimeter 30.06"
Temperature 23.9°C (75.0°F)
Wind 30° at 10KT
Clouds scattered at 3,800ft
Visibility 10.0mi
Time observed: 2021-10-20T03:53:00Z

LIH Airport Details

Status Operational
Activation March 1950
Ownership Public
Usage Public
Chart HAWAIIAN ISLANDS
ATC on-site Yes
Beacon schedule sunset-sunrise
Beacon color clear green

LIH Airport Contacts

Owner HAWAII ST ARPTS DIV
Owner address HONOLULU INTL ARPT, HONOLULU, HI 96819
Owner phone 808-838-8600
Manager SEAN COMBS
Manager address 5-3541 KUHIO HWY STE 201, PO BOX 3040, PRINCEVILLE, HI 96722
Manager phone 808-826-3040

LIH Airport (Lihue) Radio Frequencies

LIH (Airport) Radio Frequencies

UNICOM N/A
Common traffic advisory frequency (CTAF) 118.9